sensor_id;sensor_type;location;lat;lon;timestamp;P1;durP1;ratioP1;P2;durP2;ratioP2
7013;SDS011;3547;50.774;12.918;2023-01-10T00:01:36;1.37;;;1.00;;
7013;SDS011;3547;50.774;12.918;2023-01-10T00:04:02;1.20;;;0.90;;
7013;SDS011;3547;50.774;12.918;2023-01-10T00:06:29;1.60;;;1.30;;
7013;SDS011;3547;50.774;12.918;2023-01-10T00:08:55;1.73;;;1.20;;
7013;SDS011;3547;50.774;12.918;2023-01-10T00:11:22;1.40;;;1.20;;
7013;SDS011;3547;50.774;12.918;2023-01-10T00:14:07;1.93;;;1.33;;
7013;SDS011;3547;50.774;12.918;2023-01-10T00:16:33;3.03;;;1.50;;
7013;SDS011;3547;50.774;12.918;2023-01-10T00:18:59;5.30;;;1.43;;
7013;SDS011;3547;50.774;12.918;2023-01-10T00:21:25;1.10;;;1.00;;
7013;SDS011;3547;50.774;12.918;2023-01-10T00:23:53;2.50;;;1.80;;
7013;SDS011;3547;50.774;12.918;2023-01-10T00:26:19;1.30;;;1.20;;
7013;SDS011;3547;50.774;12.918;2023-01-10T00:28:45;3.13;;;1.23;;
7013;SDS011;3547;50.774;12.918;2023-01-10T00:31:11;1.37;;;1.27;;
7013;SDS011;3547;50.774;12.918;2023-01-10T00:33:38;1.17;;;1.03;;
7013;SDS011;3547;50.774;12.918;2023-01-10T00:36:04;5.10;;;1.73;;
7013;SDS011;3547;50.774;12.918;2023-01-10T00:38:32;2.40;;;1.57;;
7013;SDS011;3547;50.774;12.918;2023-01-10T00:41:00;1.10;;;1.00;;
7013;SDS011;3547;50.774;12.918;2023-01-10T00:43:26;2.70;;;1.70;;
7013;SDS011;3547;50.774;12.918;2023-01-10T00:46:11;1.73;;;1.40;;
7013;SDS011;3547;50.774;12.918;2023-01-10T00:48:37;1.77;;;1.60;;
7013;SDS011;3547;50.774;12.918;2023-01-10T00:51:03;2.80;;;1.67;;
7013;SDS011;3547;50.774;12.918;2023-01-10T00:53:30;2.70;;;1.50;;
7013;SDS011;3547;50.774;12.918;2023-01-10T00:55:56;2.13;;;1.33;;
7013;SDS011;3547;50.774;12.918;2023-01-10T00:58:22;1.50;;;1.27;;
7013;SDS011;3547;50.774;12.918;2023-01-10T01:00:48;3.57;;;1.43;;
7013;SDS011;3547;50.774;12.918;2023-01-10T01:03:15;1.30;;;1.20;;
7013;SDS011;3547;50.774;12.918;2023-01-10T01:05:43;1.67;;;1.40;;
7013;SDS011;3547;50.774;12.918;2023-01-10T01:08:11;3.47;;;1.53;;
7013;SDS011;3547;50.774;12.918;2023-01-10T01:10:39;3.03;;;1.30;;
7013;SDS011;3547;50.774;12.918;2023-01-10T01:13:09;1.60;;;1.30;;
7013;SDS011;3547;50.774;12.918;2023-01-10T01:15:45;2.80;;;1.47;;
7013;SDS011;3547;50.774;12.918;2023-01-10T01:18:12;2.90;;;1.37;;
7013;SDS011;3547;50.774;12.918;2023-01-10T01:20:40;1.13;;;1.00;;
7013;SDS011;3547;50.774;12.918;2023-01-10T01:23:07;1.30;;;1.20;;
7013;SDS011;3547;50.774;12.918;2023-01-10T01:25:33;1.40;;;1.23;;
7013;SDS011;3547;50.774;12.918;2023-01-10T01:28:00;2.93;;;1.40;;
7013;SDS011;3547;50.774;12.918;2023-01-10T01:30:26;1.40;;;1.27;;
7013;SDS011;3547;50.774;12.918;2023-01-10T01:32:52;2.17;;;1.40;;
7013;SDS011;3547;50.774;12.918;2023-01-10T01:35:18;1.70;;;1.50;;
7013;SDS011;3547;50.774;12.918;2023-01-10T01:37:45;3.30;;;1.63;;
7013;SDS011;3547;50.774;12.918;2023-01-10T01:40:15;3.37;;;1.50;;
7013;SDS011;3547;50.774;12.918;2023-01-10T01:42:44;2.93;;;1.67;;
7013;SDS011;3547;50.774;12.918;2023-01-10T01:51:01;1.97;;;1.70;;
7013;SDS011;3547;50.774;12.918;2023-01-10T01:53:35;1.70;;;1.57;;
7013;SDS011;3547;50.774;12.918;2023-01-10T01:56:13;2.67;;;1.83;;
7013;SDS011;3547;50.774;12.918;2023-01-10T02:02:12;8.37;;;1.87;;
7013;SDS011;3547;50.774;12.918;2023-01-10T02:04:46;2.47;;;1.70;;
7013;SDS011;3547;50.774;12.918;2023-01-10T02:07:27;2.30;;;1.60;;
7013;SDS011;3547;50.774;12.918;2023-01-10T02:12:44;2.80;;;1.73;;
7013;SDS011;3547;50.774;12.918;2023-01-10T02:15:13;4.03;;;1.63;;
7013;SDS011;3547;50.774;12.918;2023-01-10T02:17:42;2.67;;;1.60;;
7013;SDS011;3547;50.774;12.918;2023-01-10T02:20:11;3.00;;;1.83;;
7013;SDS011;3547;50.774;12.918;2023-01-10T02:25:50;1.67;;;1.57;;
7013;SDS011;3547;50.774;12.918;2023-01-10T02:31:36;2.13;;;1.67;;
7013;SDS011;3547;50.774;12.918;2023-01-10T02:34:28;3.03;;;1.73;;
7013;SDS011;3547;50.774;12.918;2023-01-10T02:37:12;4.83;;;2.17;;
7013;SDS011;3547;50.774;12.918;2023-01-10T02:45:47;4.77;;;1.70;;
7013;SDS011;3547;50.774;12.918;2023-01-10T02:47:56;3.07;;;1.83;;
7013;SDS011;3547;50.774;12.918;2023-01-10T02:50:27;3.93;;;2.07;;
7013;SDS011;3547;50.774;12.918;2023-01-10T02:53:08;2.83;;;1.73;;
7013;SDS011;3547;50.774;12.918;2023-01-10T03:01:41;2.80;;;2.03;;
7013;SDS011;3547;50.774;12.918;2023-01-10T03:07:15;2.40;;;1.60;;
7013;SDS011;3547;50.774;12.918;2023-01-10T03:12:20;2.67;;;2.00;;
7013;SDS011;3547;50.774;12.918;2023-01-10T03:14:53;2.80;;;2.33;;
7013;SDS011;3547;50.774;12.918;2023-01-10T03:17:20;3.70;;;2.13;;
7013;SDS011;3547;50.774;12.918;2023-01-10T03:19:49;2.30;;;1.77;;
7013;SDS011;3547;50.774;12.918;2023-01-10T03:22:17;3.93;;;2.57;;
7013;SDS011;3547;50.774;12.918;2023-01-10T03:24:46;3.70;;;2.40;;
7013;SDS011;3547;50.774;12.918;2023-01-10T03:27:17;3.83;;;2.07;;
7013;SDS011;3547;50.774;12.918;2023-01-10T03:29:53;1.90;;;1.70;;
7013;SDS011;3547;50.774;12.918;2023-01-10T03:32:39;4.20;;;2.00;;
7013;SDS011;3547;50.774;12.918;2023-01-10T03:35:07;5.47;;;2.00;;
7013;SDS011;3547;50.774;12.918;2023-01-10T03:37:40;2.27;;;1.83;;
7013;SDS011;3547;50.774;12.918;2023-01-10T03:40:18;2.67;;;2.17;;
7013;SDS011;3547;50.774;12.918;2023-01-10T03:48:46;3.07;;;2.37;;
7013;SDS011;3547;50.774;12.918;2023-01-10T03:51:13;4.93;;;1.87;;
7013;SDS011;3547;50.774;12.918;2023-01-10T03:53:42;2.27;;;2.00;;
7013;SDS011;3547;50.774;12.918;2023-01-10T03:56:13;3.53;;;2.13;;
7013;SDS011;3547;50.774;12.918;2023-01-10T03:58:39;2.97;;;2.00;;
7013;SDS011;3547;50.774;12.918;2023-01-10T04:01:06;3.77;;;2.00;;
7013;SDS011;3547;50.774;12.918;2023-01-10T04:03:32;3.60;;;2.27;;
7013;SDS011;3547;50.774;12.918;2023-01-10T04:05:58;2.37;;;1.87;;
7013;SDS011;3547;50.774;12.918;2023-01-10T04:08:24;6.17;;;2.07;;
7013;SDS011;3547;50.774;12.918;2023-01-10T04:10:50;2.27;;;1.87;;
7013;SDS011;3547;50.774;12.918;2023-01-10T04:13:16;2.73;;;2.10;;
7013;SDS011;3547;50.774;12.918;2023-01-10T04:15:42;2.33;;;1.57;;
7013;SDS011;3547;50.774;12.918;2023-01-10T04:18:08;3.77;;;2.23;;
7013;SDS011;3547;50.774;12.918;2023-01-10T04:20:35;2.27;;;1.73;;
7013;SDS011;3547;50.774;12.918;2023-01-10T04:23:01;3.37;;;1.80;;
7013;SDS011;3547;50.774;12.918;2023-01-10T04:25:27;4.30;;;1.60;;
7013;SDS011;3547;50.774;12.918;2023-01-10T04:27:53;5.03;;;2.17;;
7013;SDS011;3547;50.774;12.918;2023-01-10T04:30:19;4.00;;;2.17;;
7013;SDS011;3547;50.774;12.918;2023-01-10T04:32:45;3.33;;;2.17;;
7013;SDS011;3547;50.774;12.918;2023-01-10T04:35:12;3.73;;;2.10;;
7013;SDS011;3547;50.774;12.918;2023-01-10T04:37:41;4.17;;;2.30;;
7013;SDS011;3547;50.774;12.918;2023-01-10T04:46:54;3.03;;;1.90;;
7013;SDS011;3547;50.774;12.918;2023-01-10T04:49:20;2.83;;;1.90;;
7013;SDS011;3547;50.774;12.918;2023-01-10T04:51:46;4.50;;;2.30;;
7013;SDS011;3547;50.774;12.918;2023-01-10T04:54:13;3.50;;;2.30;;
7013;SDS011;3547;50.774;12.918;2023-01-10T04:56:39;2.90;;;2.33;;
7013;SDS011;3547;50.774;12.918;2023-01-10T04:59:05;5.93;;;2.70;;
7013;SDS011;3547;50.774;12.918;2023-01-10T05:01:31;3.83;;;1.87;;
7013;SDS011;3547;50.774;12.918;2023-01-10T05:03:58;3.07;;;2.00;;
7013;SDS011;3547;50.774;12.918;2023-01-10T05:06:24;4.30;;;2.03;;
7013;SDS011;3547;50.774;12.918;2023-01-10T05:08:50;2.60;;;2.10;;
7013;SDS011;3547;50.774;12.918;2023-01-10T05:11:17;3.03;;;2.00;;
7013;SDS011;3547;50.774;12.918;2023-01-10T05:13:43;6.70;;;2.13;;
7013;SDS011;3547;50.774;12.918;2023-01-10T05:16:09;3.73;;;2.40;;
7013;SDS011;3547;50.774;12.918;2023-01-10T05:18:35;5.00;;;2.30;;
7013;SDS011;3547;50.774;12.918;2023-01-10T05:21:05;3.97;;;2.30;;
7013;SDS011;3547;50.774;12.918;2023-01-10T05:23:33;3.03;;;2.20;;
7013;SDS011;3547;50.774;12.918;2023-01-10T05:26:19;4.97;;;2.30;;
7013;SDS011;3547;50.774;12.918;2023-01-10T05:32:09;5.03;;;2.53;;
7013;SDS011;3547;50.774;12.918;2023-01-10T05:34:35;4.03;;;1.93;;
7013;SDS011;3547;50.774;12.918;2023-01-10T05:37:02;3.90;;;2.10;;
7013;SDS011;3547;50.774;12.918;2023-01-10T05:39:28;5.03;;;2.20;;
7013;SDS011;3547;50.774;12.918;2023-01-10T05:41:54;7.13;;;2.83;;
7013;SDS011;3547;50.774;12.918;2023-01-10T05:44:20;2.30;;;2.00;;
7013;SDS011;3547;50.774;12.918;2023-01-10T05:46:46;2.30;;;2.10;;
7013;SDS011;3547;50.774;12.918;2023-01-10T05:49:12;2.20;;;1.70;;
7013;SDS011;3547;50.774;12.918;2023-01-10T05:51:38;2.03;;;1.80;;
7013;SDS011;3547;50.774;12.918;2023-01-10T05:54:04;3.87;;;2.07;;
7013;SDS011;3547;50.774;12.918;2023-01-10T05:56:31;3.40;;;2.10;;
7013;SDS011;3547;50.774;12.918;2023-01-10T05:58:57;2.00;;;1.70;;
7013;SDS011;3547;50.774;12.918;2023-01-10T06:01:23;2.83;;;2.40;;
7013;SDS011;3547;50.774;12.918;2023-01-10T06:03:49;2.07;;;1.80;;
7013;SDS011;3547;50.774;12.918;2023-01-10T06:06:15;2.17;;;1.80;;
7013;SDS011;3547;50.774;12.918;2023-01-10T06:08:41;8.87;;;2.47;;
7013;SDS011;3547;50.774;12.918;2023-01-10T06:11:07;3.27;;;2.27;;
7013;SDS011;3547;50.774;12.918;2023-01-10T06:13:33;3.13;;;2.33;;
7013;SDS011;3547;50.774;12.918;2023-01-10T06:16:00;2.20;;;1.90;;
7013;SDS011;3547;50.774;12.918;2023-01-10T06:18:26;2.10;;;1.90;;
7013;SDS011;3547;50.774;12.918;2023-01-10T06:20:52;2.27;;;1.90;;
7013;SDS011;3547;50.774;12.918;2023-01-10T06:23:18;3.23;;;2.37;;
7013;SDS011;3547;50.774;12.918;2023-01-10T06:25:44;6.80;;;2.20;;
7013;SDS011;3547;50.774;12.918;2023-01-10T06:28:11;3.40;;;2.10;;
7013;SDS011;3547;50.774;12.918;2023-01-10T06:30:39;2.37;;;1.93;;
7013;SDS011;3547;50.774;12.918;2023-01-10T06:33:06;2.67;;;2.00;;
7013;SDS011;3547;50.774;12.918;2023-01-10T06:35:34;4.00;;;2.43;;
7013;SDS011;3547;50.774;12.918;2023-01-10T06:38:00;3.03;;;2.10;;
7013;SDS011;3547;50.774;12.918;2023-01-10T06:40:27;4.97;;;2.03;;
7013;SDS011;3547;50.774;12.918;2023-01-10T06:42:53;3.00;;;2.40;;
7013;SDS011;3547;50.774;12.918;2023-01-10T06:45:19;3.40;;;2.30;;
7013;SDS011;3547;50.774;12.918;2023-01-10T06:47:46;4.97;;;2.17;;
7013;SDS011;3547;50.774;12.918;2023-01-10T06:50:12;3.73;;;2.50;;
7013;SDS011;3547;50.774;12.918;2023-01-10T06:52:39;3.70;;;2.33;;
7013;SDS011;3547;50.774;12.918;2023-01-10T06:55:06;2.47;;;2.17;;
7013;SDS011;3547;50.774;12.918;2023-01-10T06:57:33;3.90;;;2.53;;
7013;SDS011;3547;50.774;12.918;2023-01-10T07:00:03;3.70;;;2.67;;
7013;SDS011;3547;50.774;12.918;2023-01-10T07:02:33;3.50;;;2.40;;
7013;SDS011;3547;50.774;12.918;2023-01-10T07:04:59;3.47;;;2.57;;
7013;SDS011;3547;50.774;12.918;2023-01-10T07:07:25;4.97;;;2.40;;
7013;SDS011;3547;50.774;12.918;2023-01-10T07:09:51;3.43;;;1.83;;
7013;SDS011;3547;50.774;12.918;2023-01-10T07:12:17;4.37;;;2.23;;
7013;SDS011;3547;50.774;12.918;2023-01-10T07:14:43;2.33;;;1.97;;
7013;SDS011;3547;50.774;12.918;2023-01-10T07:17:09;3.77;;;2.30;;
7013;SDS011;3547;50.774;12.918;2023-01-10T07:19:35;5.23;;;2.10;;
7013;SDS011;3547;50.774;12.918;2023-01-10T07:22:01;3.40;;;2.50;;
7013;SDS011;3547;50.774;12.918;2023-01-10T07:24:28;5.87;;;2.13;;
7013;SDS011;3547;50.774;12.918;2023-01-10T07:26:54;6.10;;;2.20;;
7013;SDS011;3547;50.774;12.918;2023-01-10T07:29:20;4.13;;;2.17;;
7013;SDS011;3547;50.774;12.918;2023-01-10T07:31:47;3.77;;;2.37;;
7013;SDS011;3547;50.774;12.918;2023-01-10T07:34:13;2.53;;;2.00;;
7013;SDS011;3547;50.774;12.918;2023-01-10T07:36:39;3.40;;;2.30;;
7013;SDS011;3547;50.774;12.918;2023-01-10T07:39:05;2.17;;;1.97;;
7013;SDS011;3547;50.774;12.918;2023-01-10T07:41:31;6.10;;;2.03;;
7013;SDS011;3547;50.774;12.918;2023-01-10T07:43:57;6.27;;;2.20;;
7013;SDS011;3547;50.774;12.918;2023-01-10T07:46:23;2.33;;;1.83;;
7013;SDS011;3547;50.774;12.918;2023-01-10T07:48:50;3.27;;;1.70;;
7013;SDS011;3547;50.774;12.918;2023-01-10T07:51:17;3.23;;;2.00;;
7013;SDS011;3547;50.774;12.918;2023-01-10T07:53:43;1.63;;;1.53;;
7013;SDS011;3547;50.774;12.918;2023-01-10T07:56:09;3.87;;;1.73;;
7013;SDS011;3547;50.774;12.918;2023-01-10T07:58:35;1.83;;;1.60;;
7013;SDS011;3547;50.774;12.918;2023-01-10T08:01:02;6.00;;;1.83;;
7013;SDS011;3547;50.774;12.918;2023-01-10T08:03:29;2.43;;;1.87;;
7013;SDS011;3547;50.774;12.918;2023-01-10T08:06:04;2.93;;;1.70;;
7013;SDS011;3547;50.774;12.918;2023-01-10T08:08:32;2.53;;;1.70;;
7013;SDS011;3547;50.774;12.918;2023-01-10T08:10:59;6.43;;;2.17;;
7013;SDS011;3547;50.774;12.918;2023-01-10T08:13:27;4.27;;;1.90;;
7013;SDS011;3547;50.774;12.918;2023-01-10T08:15:53;3.17;;;2.13;;
7013;SDS011;3547;50.774;12.918;2023-01-10T08:18:20;3.57;;;1.90;;
7013;SDS011;3547;50.774;12.918;2023-01-10T08:20:48;3.30;;;1.83;;
7013;SDS011;3547;50.774;12.918;2023-01-10T08:23:16;2.67;;;1.63;;
7013;SDS011;3547;50.774;12.918;2023-01-10T08:25:42;3.10;;;2.10;;
7013;SDS011;3547;50.774;12.918;2023-01-10T08:28:08;4.60;;;1.97;;
7013;SDS011;3547;50.774;12.918;2023-01-10T08:30:35;4.00;;;2.10;;
7013;SDS011;3547;50.774;12.918;2023-01-10T08:33:02;8.70;;;2.20;;
7013;SDS011;3547;50.774;12.918;2023-01-10T08:35:30;4.13;;;2.00;;
7013;SDS011;3547;50.774;12.918;2023-01-10T08:38:00;4.20;;;2.20;;
7013;SDS011;3547;50.774;12.918;2023-01-10T08:40:26;2.47;;;1.80;;
7013;SDS011;3547;50.774;12.918;2023-01-10T08:42:59;2.50;;;2.03;;
7013;SDS011;3547;50.774;12.918;2023-01-10T08:45:27;2.60;;;1.80;;
7013;SDS011;3547;50.774;12.918;2023-01-10T08:47:54;3.27;;;2.00;;
7013;SDS011;3547;50.774;12.918;2023-01-10T08:50:21;2.37;;;1.70;;
7013;SDS011;3547;50.774;12.918;2023-01-10T08:52:47;2.10;;;1.57;;
7013;SDS011;3547;50.774;12.918;2023-01-10T08:55:13;1.63;;;1.40;;
7013;SDS011;3547;50.774;12.918;2023-01-10T08:57:39;3.83;;;2.00;;
7013;SDS011;3547;50.774;12.918;2023-01-10T09:00:06;3.33;;;2.20;;
7013;SDS011;3547;50.774;12.918;2023-01-10T09:02:32;4.90;;;2.30;;
7013;SDS011;3547;50.774;12.918;2023-01-10T09:04:58;3.37;;;2.20;;
7013;SDS011;3547;50.774;12.918;2023-01-10T09:07:24;3.60;;;2.20;;
7013;SDS011;3547;50.774;12.918;2023-01-10T09:09:51;3.20;;;1.70;;
7013;SDS011;3547;50.774;12.918;2023-01-10T09:12:17;7.73;;;3.00;;
7013;SDS011;3547;50.774;12.918;2023-01-10T09:15:01;2.50;;;1.87;;
7013;SDS011;3547;50.774;12.918;2023-01-10T09:17:27;2.20;;;2.00;;
7013;SDS011;3547;50.774;12.918;2023-01-10T09:19:53;5.30;;;2.30;;
7013;SDS011;3547;50.774;12.918;2023-01-10T09:22:20;5.00;;;2.63;;
7013;SDS011;3547;50.774;12.918;2023-01-10T09:24:46;4.03;;;1.90;;
7013;SDS011;3547;50.774;12.918;2023-01-10T09:27:13;2.63;;;2.00;;
7013;SDS011;3547;50.774;12.918;2023-01-10T09:29:39;4.93;;;2.20;;
7013;SDS011;3547;50.774;12.918;2023-01-10T09:32:05;3.73;;;2.17;;
7013;SDS011;3547;50.774;12.918;2023-01-10T09:34:31;5.43;;;2.10;;
7013;SDS011;3547;50.774;12.918;2023-01-10T09:36:58;2.30;;;1.73;;
7013;SDS011;3547;50.774;12.918;2023-01-10T09:39:24;1.83;;;1.50;;
7013;SDS011;3547;50.774;12.918;2023-01-10T09:52:49;3.87;;;1.97;;
7013;SDS011;3547;50.774;12.918;2023-01-10T09:55:24;2.93;;;1.67;;
7013;SDS011;3547;50.774;12.918;2023-01-10T09:57:55;4.10;;;1.93;;
7013;SDS011;3547;50.774;12.918;2023-01-10T10:00:26;1.87;;;1.63;;
7013;SDS011;3547;50.774;12.918;2023-01-10T10:03:00;3.83;;;1.60;;
7013;SDS011;3547;50.774;12.918;2023-01-10T10:05:35;3.63;;;1.70;;
7013;SDS011;3547;50.774;12.918;2023-01-10T10:08:01;2.33;;;1.63;;
7013;SDS011;3547;50.774;12.918;2023-01-10T10:10:32;3.27;;;2.03;;
7013;SDS011;3547;50.774;12.918;2023-01-10T10:16:07;2.67;;;1.80;;
7013;SDS011;3547;50.774;12.918;2023-01-10T10:21:32;5.97;;;2.30;;
7013;SDS011;3547;50.774;12.918;2023-01-10T10:26:58;7.67;;;2.13;;
7013;SDS011;3547;50.774;12.918;2023-01-10T10:38:18;2.87;;;1.67;;
7013;SDS011;3547;50.774;12.918;2023-01-10T10:40:50;7.27;;;2.03;;
7013;SDS011;3547;50.774;12.918;2023-01-10T10:43:19;2.43;;;1.37;;
7013;SDS011;3547;50.774;12.918;2023-01-10T10:45:54;3.30;;;1.37;;
7013;SDS011;3547;50.774;12.918;2023-01-10T10:48:37;4.63;;;1.67;;
7013;SDS011;3547;50.774;12.918;2023-01-10T10:53:44;7.13;;;2.03;;
7013;SDS011;3547;50.774;12.918;2023-01-10T10:56:12;3.83;;;1.60;;
7013;SDS011;3547;50.774;12.918;2023-01-10T10:58:42;4.00;;;1.93;;
7013;SDS011;3547;50.774;12.918;2023-01-10T11:01:12;3.20;;;1.17;;
7013;SDS011;3547;50.774;12.918;2023-01-10T11:06:14;2.60;;;1.70;;
7013;SDS011;3547;50.774;12.918;2023-01-10T11:08:43;2.77;;;1.40;;
7013;SDS011;3547;50.774;12.918;2023-01-10T11:11:15;4.90;;;1.43;;
7013;SDS011;3547;50.774;12.918;2023-01-10T11:14:14;4.20;;;1.20;;
7013;SDS011;3547;50.774;12.918;2023-01-10T11:17:18;1.47;;;1.00;;
7013;SDS011;3547;50.774;12.918;2023-01-10T11:20:00;2.50;;;1.30;;
7013;SDS011;3547;50.774;12.918;2023-01-10T11:22:27;1.30;;;1.07;;
7013;SDS011;3547;50.774;12.918;2023-01-10T11:25:05;2.40;;;1.33;;
7013;SDS011;3547;50.774;12.918;2023-01-10T11:27:48;6.10;;;1.80;;
7013;SDS011;3547;50.774;12.918;2023-01-10T11:30:20;2.60;;;1.27;;
7013;SDS011;3547;50.774;12.918;2023-01-10T11:32:53;2.67;;;1.37;;
7013;SDS011;3547;50.774;12.918;2023-01-10T11:35:26;2.43;;;1.17;;
7013;SDS011;3547;50.774;12.918;2023-01-10T11:37:59;1.67;;;1.27;;
7013;SDS011;3547;50.774;12.918;2023-01-10T11:40:29;4.00;;;2.00;;
7013;SDS011;3547;50.774;12.918;2023-01-10T11:42:57;1.97;;;1.57;;
7013;SDS011;3547;50.774;12.918;2023-01-10T11:45:31;4.40;;;1.43;;
7013;SDS011;3547;50.774;12.918;2023-01-10T11:50:28;1.93;;;1.00;;
7013;SDS011;3547;50.774;12.918;2023-01-10T11:52:57;2.27;;;1.20;;
7013;SDS011;3547;50.774;12.918;2023-01-10T11:55:28;1.57;;;0.80;;
7013;SDS011;3547;50.774;12.918;2023-01-10T11:57:56;4.53;;;1.53;;
7013;SDS011;3547;50.774;12.918;2023-01-10T12:00:44;2.00;;;1.20;;
7013;SDS011;3547;50.774;12.918;2023-01-10T12:03:28;2.13;;;0.93;;
7013;SDS011;3547;50.774;12.918;2023-01-10T12:06:07;2.37;;;1.10;;
7013;SDS011;3547;50.774;12.918;2023-01-10T12:08:38;1.53;;;0.83;;
7013;SDS011;3547;50.774;12.918;2023-01-10T12:13:42;0.80;;;0.67;;
7013;SDS011;3547;50.774;12.918;2023-01-10T12:18:46;1.77;;;1.00;;
7013;SDS011;3547;50.774;12.918;2023-01-10T12:21:15;5.23;;;1.20;;
7013;SDS011;3547;50.774;12.918;2023-01-10T12:24:03;1.90;;;1.33;;
7013;SDS011;3547;50.774;12.918;2023-01-10T12:26:43;2.07;;;1.33;;
7013;SDS011;3547;50.774;12.918;2023-01-10T12:29:13;2.40;;;1.27;;
7013;SDS011;3547;50.774;12.918;2023-01-10T12:31:43;4.60;;;1.10;;
7013;SDS011;3547;50.774;12.918;2023-01-10T12:34:12;2.33;;;1.20;;
7013;SDS011;3547;50.774;12.918;2023-01-10T12:39:31;1.20;;;1.00;;
7013;SDS011;3547;50.774;12.918;2023-01-10T12:42:07;1.30;;;1.20;;
7013;SDS011;3547;50.774;12.918;2023-01-10T12:53:29;1.77;;;0.93;;
7013;SDS011;3547;50.774;12.918;2023-01-10T12:56:01;0.87;;;0.63;;
7013;SDS011;3547;50.774;12.918;2023-01-10T12:58:37;4.93;;;1.30;;
7013;SDS011;3547;50.774;12.918;2023-01-10T13:01:14;8.80;;;3.27;;
7013;SDS011;3547;50.774;12.918;2023-01-10T13:03:43;3.53;;;2.37;;
7013;SDS011;3547;50.774;12.918;2023-01-10T13:06:22;4.87;;;1.13;;
7013;SDS011;3547;50.774;12.918;2023-01-10T13:08:54;1.73;;;1.23;;
7013;SDS011;3547;50.774;12.918;2023-01-10T13:11:22;3.20;;;1.63;;
7013;SDS011;3547;50.774;12.918;2023-01-10T13:13:55;3.23;;;1.83;;
7013;SDS011;3547;50.774;12.918;2023-01-10T13:16:39;1.80;;;1.00;;
7013;SDS011;3547;50.774;12.918;2023-01-10T13:21:39;1.23;;;1.07;;
7013;SDS011;3547;50.774;12.918;2023-01-10T13:24:21;1.57;;;0.90;;
7013;SDS011;3547;50.774;12.918;2023-01-10T13:29:21;2.17;;;1.30;;
7013;SDS011;3547;50.774;12.918;2023-01-10T13:31:53;2.63;;;1.00;;
7013;SDS011;3547;50.774;12.918;2023-01-10T13:34:24;1.57;;;1.30;;
7013;SDS011;3547;50.774;12.918;2023-01-10T13:37:10;2.43;;;1.20;;
7013;SDS011;3547;50.774;12.918;2023-01-10T13:39:39;2.37;;;1.00;;
7013;SDS011;3547;50.774;12.918;2023-01-10T13:42:11;3.70;;;1.10;;
7013;SDS011;3547;50.774;12.918;2023-01-10T13:45:16;1.67;;;1.10;;
7013;SDS011;3547;50.774;12.918;2023-01-10T14:00:46;2.13;;;1.07;;
7013;SDS011;3547;50.774;12.918;2023-01-10T14:06:12;4.27;;;1.13;;
7013;SDS011;3547;50.774;12.918;2023-01-10T14:08:40;1.37;;;1.00;;
7013;SDS011;3547;50.774;12.918;2023-01-10T14:11:13;1.93;;;1.00;;
7013;SDS011;3547;50.774;12.918;2023-01-10T14:14:15;3.27;;;1.17;;
7013;SDS011;3547;50.774;12.918;2023-01-10T14:16:42;2.57;;;1.13;;
7013;SDS011;3547;50.774;12.918;2023-01-10T14:19:30;1.27;;;1.10;;
7013;SDS011;3547;50.774;12.918;2023-01-10T14:21:59;1.03;;;0.90;;
7013;SDS011;3547;50.774;12.918;2023-01-10T14:24:28;2.63;;;1.50;;
7013;SDS011;3547;50.774;12.918;2023-01-10T14:27:04;4.17;;;1.47;;
7013;SDS011;3547;50.774;12.918;2023-01-10T14:29:36;4.27;;;1.50;;
7013;SDS011;3547;50.774;12.918;2023-01-10T14:32:04;5.27;;;1.77;;
7013;SDS011;3547;50.774;12.918;2023-01-10T14:34:39;1.83;;;1.30;;
7013;SDS011;3547;50.774;12.918;2023-01-10T14:37:43;6.27;;;1.70;;
7013;SDS011;3547;50.774;12.918;2023-01-10T14:40:23;3.67;;;1.47;;
7013;SDS011;3547;50.774;12.918;2023-01-10T14:42:53;9.47;;;1.70;;
7013;SDS011;3547;50.774;12.918;2023-01-10T14:45:37;2.10;;;1.47;;
7013;SDS011;3547;50.774;12.918;2023-01-10T14:48:22;4.07;;;1.13;;
7013;SDS011;3547;50.774;12.918;2023-01-10T14:50:51;6.10;;;1.87;;
7013;SDS011;3547;50.774;12.918;2023-01-10T14:53:38;4.73;;;1.20;;
7013;SDS011;3547;50.774;12.918;2023-01-10T14:56:16;3.23;;;1.60;;
7013;SDS011;3547;50.774;12.918;2023-01-10T14:58:46;3.33;;;1.40;;
7013;SDS011;3547;50.774;12.918;2023-01-10T15:01:14;2.07;;;1.37;;
7013;SDS011;3547;50.774;12.918;2023-01-10T15:03:47;2.20;;;1.70;;
7013;SDS011;3547;50.774;12.918;2023-01-10T15:06:14;2.57;;;1.47;;
7013;SDS011;3547;50.774;12.918;2023-01-10T15:08:40;3.33;;;1.63;;
7013;SDS011;3547;50.774;12.918;2023-01-10T15:11:08;2.27;;;1.50;;
7013;SDS011;3547;50.774;12.918;2023-01-10T15:13:41;1.87;;;1.57;;
7013;SDS011;3547;50.774;12.918;2023-01-10T15:16:20;1.70;;;1.50;;
7013;SDS011;3547;50.774;12.918;2023-01-10T15:18:48;5.67;;;1.63;;
7013;SDS011;3547;50.774;12.918;2023-01-10T15:21:16;3.50;;;2.00;;
7013;SDS011;3547;50.774;12.918;2023-01-10T15:23:46;2.43;;;1.63;;
7013;SDS011;3547;50.774;12.918;2023-01-10T15:26:13;2.17;;;1.83;;
7013;SDS011;3547;50.774;12.918;2023-01-10T15:28:41;1.97;;;1.23;;
7013;SDS011;3547;50.774;12.918;2023-01-10T15:31:14;1.77;;;1.37;;
7013;SDS011;3547;50.774;12.918;2023-01-10T15:33:44;1.20;;;1.00;;
7013;SDS011;3547;50.774;12.918;2023-01-10T15:36:20;1.70;;;1.27;;
7013;SDS011;3547;50.774;12.918;2023-01-10T15:38:50;1.47;;;1.00;;
7013;SDS011;3547;50.774;12.918;2023-01-10T15:41:18;5.30;;;1.97;;
7013;SDS011;3547;50.774;12.918;2023-01-10T15:43:47;3.90;;;1.20;;
7013;SDS011;3547;50.774;12.918;2023-01-10T15:46:19;12.27;;;4.87;;
7013;SDS011;3547;50.774;12.918;2023-01-10T15:48:55;10.10;;;4.87;;
7013;SDS011;3547;50.774;12.918;2023-01-10T15:54:04;11.47;;;3.70;;
7013;SDS011;3547;50.774;12.918;2023-01-10T15:56:45;3.70;;;2.00;;
7013;SDS011;3547;50.774;12.918;2023-01-10T15:59:29;1.43;;;1.13;;
7013;SDS011;3547;50.774;12.918;2023-01-10T16:02:00;15.10;;;6.10;;
7013;SDS011;3547;50.774;12.918;2023-01-10T16:04:41;20.27;;;8.53;;
7013;SDS011;3547;50.774;12.918;2023-01-10T16:07:11;7.37;;;4.57;;
7013;SDS011;3547;50.774;12.918;2023-01-10T16:09:48;2.47;;;1.80;;
7013;SDS011;3547;50.774;12.918;2023-01-10T16:12:42;1.67;;;1.00;;
7013;SDS011;3547;50.774;12.918;2023-01-10T16:15:28;2.80;;;1.87;;
7013;SDS011;3547;50.774;12.918;2023-01-10T16:17:55;1.50;;;1.40;;
7013;SDS011;3547;50.774;12.918;2023-01-10T16:20:24;1.87;;;1.73;;
7013;SDS011;3547;50.774;12.918;2023-01-10T16:22:53;2.30;;;1.13;;
7013;SDS011;3547;50.774;12.918;2023-01-10T16:25:25;2.60;;;1.57;;
7013;SDS011;3547;50.774;12.918;2023-01-10T16:27:57;3.47;;;1.67;;
7013;SDS011;3547;50.774;12.918;2023-01-10T16:30:25;2.33;;;1.37;;
7013;SDS011;3547;50.774;12.918;2023-01-10T16:32:53;1.73;;;1.30;;
7013;SDS011;3547;50.774;12.918;2023-01-10T16:35:22;4.60;;;2.40;;
7013;SDS011;3547;50.774;12.918;2023-01-10T16:37:52;5.40;;;1.47;;
7013;SDS011;3547;50.774;12.918;2023-01-10T16:40:32;2.47;;;1.60;;
7013;SDS011;3547;50.774;12.918;2023-01-10T16:43:01;1.40;;;1.30;;
7013;SDS011;3547;50.774;12.918;2023-01-10T16:45:44;0.90;;;0.87;;
7013;SDS011;3547;50.774;12.918;2023-01-10T16:48:11;1.70;;;1.13;;
7013;SDS011;3547;50.774;12.918;2023-01-10T16:50:38;2.60;;;1.53;;
7013;SDS011;3547;50.774;12.918;2023-01-10T16:53:05;1.17;;;1.03;;
7013;SDS011;3547;50.774;12.918;2023-01-10T16:55:39;2.57;;;1.50;;
7013;SDS011;3547;50.774;12.918;2023-01-10T16:58:10;1.23;;;1.13;;
7013;SDS011;3547;50.774;12.918;2023-01-10T17:00:38;1.90;;;1.13;;
7013;SDS011;3547;50.774;12.918;2023-01-10T17:03:19;1.97;;;1.40;;
7013;SDS011;3547;50.774;12.918;2023-01-10T17:05:46;2.97;;;1.17;;
7013;SDS011;3547;50.774;12.918;2023-01-10T17:08:22;1.97;;;1.10;;
7013;SDS011;3547;50.774;12.918;2023-01-10T17:10:52;7.07;;;1.47;;
7013;SDS011;3547;50.774;12.918;2023-01-10T17:13:26;2.20;;;1.47;;
7013;SDS011;3547;50.774;12.918;2023-01-10T17:15:56;4.97;;;1.60;;
7013;SDS011;3547;50.774;12.918;2023-01-10T17:18:25;4.63;;;1.77;;
7013;SDS011;3547;50.774;12.918;2023-01-10T17:20:53;4.47;;;1.67;;
7013;SDS011;3547;50.774;12.918;2023-01-10T17:23:21;1.37;;;1.10;;
7013;SDS011;3547;50.774;12.918;2023-01-10T17:25:48;4.87;;;2.03;;
7013;SDS011;3547;50.774;12.918;2023-01-10T17:28:15;3.97;;;1.80;;